sensor_id;sensor_type;location;lat;lon;timestamp;temperature;humidity
1880;DHT22;49285;49.002;8.390;2023-04-24T00:00:56;14.30;99.90
1880;DHT22;49285;49.002;8.390;2023-04-24T00:03:25;14.30;99.90
1880;DHT22;49285;49.002;8.390;2023-04-24T00:05:51;14.20;99.90
1880;DHT22;49285;49.002;8.390;2023-04-24T00:08:17;14.20;99.90
1880;DHT22;49285;49.002;8.390;2023-04-24T00:10:43;14.20;99.90
1880;DHT22;49285;49.002;8.390;2023-04-24T00:13:09;14.20;99.90
1880;DHT22;49285;49.002;8.390;2023-04-24T00:15:34;14.10;99.90
1880;DHT22;49285;49.002;8.390;2023-04-24T00:18:00;14.20;99.90
1880;DHT22;49285;49.002;8.390;2023-04-24T00:20:27;14.20;99.90
1880;DHT22;49285;49.002;8.390;2023-04-24T00:22:55;14.20;99.90
1880;DHT22;49285;49.002;8.390;2023-04-24T00:25:20;14.20;99.90
1880;DHT22;49285;49.002;8.390;2023-04-24T00:27:46;14.10;99.90
1880;DHT22;49285;49.002;8.390;2023-04-24T00:30:11;14.20;99.90
1880;DHT22;49285;49.002;8.390;2023-04-24T00:32:37;14.20;99.90
1880;DHT22;49285;49.002;8.390;2023-04-24T00:35:03;14.20;99.90
1880;DHT22;49285;49.002;8.390;2023-04-24T00:37:28;14.20;99.90
1880;DHT22;49285;49.002;8.390;2023-04-24T00:39:54;14.30;99.90
1880;DHT22;49285;49.002;8.390;2023-04-24T00:42:20;14.30;99.90
1880;DHT22;49285;49.002;8.390;2023-04-24T00:44:46;14.30;99.90
1880;DHT22;49285;49.002;8.390;2023-04-24T00:47:12;14.30;99.90
1880;DHT22;49285;49.002;8.390;2023-04-24T00:49:38;14.30;99.90
1880;DHT22;49285;49.002;8.390;2023-04-24T00:52:04;14.30;99.90
1880;DHT22;49285;49.002;8.390;2023-04-24T00:54:32;14.30;99.90
1880;DHT22;49285;49.002;8.390;2023-04-24T00:56:58;14.30;99.90
1880;DHT22;49285;49.002;8.390;2023-04-24T00:59:24;14.40;99.90
1880;DHT22;49285;49.002;8.390;2023-04-24T01:01:50;14.40;99.90
1880;DHT22;49285;49.002;8.390;2023-04-24T01:04:17;14.40;99.90
1880;DHT22;49285;49.002;8.390;2023-04-24T01:06:43;14.30;99.90
1880;DHT22;49285;49.002;8.390;2023-04-24T01:09:10;14.40;99.90
1880;DHT22;49285;49.002;8.390;2023-04-24T01:11:37;14.40;99.90
1880;DHT22;49285;49.002;8.390;2023-04-24T01:14:03;14.30;99.90
1880;DHT22;49285;49.002;8.390;2023-04-24T01:16:29;14.30;99.90
1880;DHT22;49285;49.002;8.390;2023-04-24T01:18:54;14.30;99.90
1880;DHT22;49285;49.002;8.390;2023-04-24T01:21:20;14.20;99.90
1880;DHT22;49285;49.002;8.390;2023-04-24T01:23:46;14.20;99.90
1880;DHT22;49285;49.002;8.390;2023-04-24T01:26:16;14.20;99.90
1880;DHT22;49285;49.002;8.390;2023-04-24T01:28:42;14.10;99.90
1880;DHT22;49285;49.002;8.390;2023-04-24T01:31:08;14.20;99.90
1880;DHT22;49285;49.002;8.390;2023-04-24T01:33:34;14.20;99.90
1880;DHT22;49285;49.002;8.390;2023-04-24T01:36:00;14.20;99.90
1880;DHT22;49285;49.002;8.390;2023-04-24T01:38:26;14.20;99.90
1880;DHT22;49285;49.002;8.390;2023-04-24T01:40:52;14.10;99.90
1880;DHT22;49285;49.002;8.390;2023-04-24T01:43:18;14.10;99.90
1880;DHT22;49285;49.002;8.390;2023-04-24T01:45:44;14.10;99.90
1880;DHT22;49285;49.002;8.390;2023-04-24T01:48:10;14.00;99.90
1880;DHT22;49285;49.002;8.390;2023-04-24T01:50:36;14.10;99.90
1880;DHT22;49285;49.002;8.390;2023-04-24T01:53:02;14.00;99.90
1880;DHT22;49285;49.002;8.390;2023-04-24T01:55:27;13.90;99.90
1880;DHT22;49285;49.002;8.390;2023-04-24T01:57:55;13.90;99.90
1880;DHT22;49285;49.002;8.390;2023-04-24T02:00:21;13.90;99.90
1880;DHT22;49285;49.002;8.390;2023-04-24T02:02:46;13.90;99.90
1880;DHT22;49285;49.002;8.390;2023-04-24T02:05:12;14.00;99.90
1880;DHT22;49285;49.002;8.390;2023-04-24T02:07:38;13.90;99.90
1880;DHT22;49285;49.002;8.390;2023-04-24T02:10:04;13.90;99.90
1880;DHT22;49285;49.002;8.390;2023-04-24T02:12:30;13.80;99.90
1880;DHT22;49285;49.002;8.390;2023-04-24T02:14:55;13.80;99.90
1880;DHT22;49285;49.002;8.390;2023-04-24T02:17:21;13.80;99.90
1880;DHT22;49285;49.002;8.390;2023-04-24T02:19:46;13.80;99.90
1880;DHT22;49285;49.002;8.390;2023-04-24T02:22:12;13.80;99.90
1880;DHT22;49285;49.002;8.390;2023-04-24T02:24:38;13.80;99.90
1880;DHT22;49285;49.002;8.390;2023-04-24T02:27:04;13.80;99.90
1880;DHT22;49285;49.002;8.390;2023-04-24T02:29:30;13.80;99.90
1880;DHT22;49285;49.002;8.390;2023-04-24T02:31:56;13.70;99.90
1880;DHT22;49285;49.002;8.390;2023-04-24T02:34:22;13.70;99.90
1880;DHT22;49285;49.002;8.390;2023-04-24T02:36:48;13.80;99.90
1880;DHT22;49285;49.002;8.390;2023-04-24T02:39:14;13.80;99.90
1880;DHT22;49285;49.002;8.390;2023-04-24T02:41:42;13.70;99.90
1880;DHT22;49285;49.002;8.390;2023-04-24T02:44:07;13.70;99.90
1880;DHT22;49285;49.002;8.390;2023-04-24T02:46:33;13.80;99.90
1880;DHT22;49285;49.002;8.390;2023-04-24T02:48:59;13.90;99.90
1880;DHT22;49285;49.002;8.390;2023-04-24T02:51:24;13.90;99.90
1880;DHT22;49285;49.002;8.390;2023-04-24T02:53:50;13.90;99.90
1880;DHT22;49285;49.002;8.390;2023-04-24T02:56:15;13.90;99.90
1880;DHT22;49285;49.002;8.390;2023-04-24T02:58:41;13.90;99.90
1880;DHT22;49285;49.002;8.390;2023-04-24T03:01:07;13.80;99.90
1880;DHT22;49285;49.002;8.390;2023-04-24T03:03:35;13.60;99.90
1880;DHT22;49285;49.002;8.390;2023-04-24T03:06:01;13.50;99.90
1880;DHT22;49285;49.002;8.390;2023-04-24T03:08:27;13.30;99.90
1880;DHT22;49285;49.002;8.390;2023-04-24T03:10:52;13.20;99.90
1880;DHT22;49285;49.002;8.390;2023-04-24T03:13:18;13.10;99.90
1880;DHT22;49285;49.002;8.390;2023-04-24T03:15:43;13.10;99.90
1880;DHT22;49285;49.002;8.390;2023-04-24T03:18:10;13.00;99.90
1880;DHT22;49285;49.002;8.390;2023-04-24T03:20:35;12.90;99.90
1880;DHT22;49285;49.002;8.390;2023-04-24T03:23:02;12.80;99.90
1880;DHT22;49285;49.002;8.390;2023-04-24T03:25:28;12.80;99.90
1880;DHT22;49285;49.002;8.390;2023-04-24T03:27:54;12.80;99.90
1880;DHT22;49285;49.002;8.390;2023-04-24T03:30:20;12.70;99.90
1880;DHT22;49285;49.002;8.390;2023-04-24T03:32:46;12.60;99.90
1880;DHT22;49285;49.002;8.390;2023-04-24T03:35:11;12.70;99.90
1880;DHT22;49285;49.002;8.390;2023-04-24T03:37:37;12.60;99.90
1880;DHT22;49285;49.002;8.390;2023-04-24T03:40:02;12.70;99.90
1880;DHT22;49285;49.002;8.390;2023-04-24T03:42:28;12.80;99.90
1880;DHT22;49285;49.002;8.390;2023-04-24T03:44:54;12.80;99.90
1880;DHT22;49285;49.002;8.390;2023-04-24T03:47:19;12.90;99.90
1880;DHT22;49285;49.002;8.390;2023-04-24T03:49:45;13.00;99.90
1880;DHT22;49285;49.002;8.390;2023-04-24T03:52:10;12.90;99.90
1880;DHT22;49285;49.002;8.390;2023-04-24T03:54:36;12.90;99.90
1880;DHT22;49285;49.002;8.390;2023-04-24T03:57:02;12.90;99.90
1880;DHT22;49285;49.002;8.390;2023-04-24T03:59:28;12.80;99.90
1880;DHT22;49285;49.002;8.390;2023-04-24T04:01:54;12.80;99.90
1880;DHT22;49285;49.002;8.390;2023-04-24T04:04:20;12.80;99.90
1880;DHT22;49285;49.002;8.390;2023-04-24T04:06:45;12.70;99.90
1880;DHT22;49285;49.002;8.390;2023-04-24T04:09:11;12.70;99.90
1880;DHT22;49285;49.002;8.390;2023-04-24T04:11:37;12.70;99.90
1880;DHT22;49285;49.002;8.390;2023-04-24T04:14:03;12.90;99.90
1880;DHT22;49285;49.002;8.390;2023-04-24T04:16:28;12.90;99.90
1880;DHT22;49285;49.002;8.390;2023-04-24T04:18:54;12.70;99.90
1880;DHT22;49285;49.002;8.390;2023-04-24T04:21:20;12.70;99.90
1880;DHT22;49285;49.002;8.390;2023-04-24T04:23:46;12.70;99.90
1880;DHT22;49285;49.002;8.390;2023-04-24T04:26:12;12.60;99.90
1880;DHT22;49285;49.002;8.390;2023-04-24T04:28:40;12.50;99.90
1880;DHT22;49285;49.002;8.390;2023-04-24T04:31:06;12.50;99.90
1880;DHT22;49285;49.002;8.390;2023-04-24T04:33:33;12.50;99.90
1880;DHT22;49285;49.002;8.390;2023-04-24T04:35:59;12.50;99.90
1880;DHT22;49285;49.002;8.390;2023-04-24T04:38:25;12.50;99.90
1880;DHT22;49285;49.002;8.390;2023-04-24T04:40:55;12.50;99.90
1880;DHT22;49285;49.002;8.390;2023-04-24T04:43:22;12.60;99.90
1880;DHT22;49285;49.002;8.390;2023-04-24T04:45:48;12.40;99.90
1880;DHT22;49285;49.002;8.390;2023-04-24T04:48:13;12.40;99.90
1880;DHT22;49285;49.002;8.390;2023-04-24T04:50:39;12.40;99.90
1880;DHT22;49285;49.002;8.390;2023-04-24T04:53:05;12.40;99.90
1880;DHT22;49285;49.002;8.390;2023-04-24T04:55:31;12.20;99.90
1880;DHT22;49285;49.002;8.390;2023-04-24T04:57:57;12.20;99.90
1880;DHT22;49285;49.002;8.390;2023-04-24T05:00:23;12.20;99.90
1880;DHT22;49285;49.002;8.390;2023-04-24T05:02:51;12.30;99.90
1880;DHT22;49285;49.002;8.390;2023-04-24T05:05:17;12.20;99.90
1880;DHT22;49285;49.002;8.390;2023-04-24T05:07:43;12.20;99.90
1880;DHT22;49285;49.002;8.390;2023-04-24T05:10:09;12.20;99.90
1880;DHT22;49285;49.002;8.390;2023-04-24T05:12:35;12.30;99.90
1880;DHT22;49285;49.002;8.390;2023-04-24T05:15:00;12.20;99.90
1880;DHT22;49285;49.002;8.390;2023-04-24T05:17:26;12.20;99.90
1880;DHT22;49285;49.002;8.390;2023-04-24T05:19:51;12.30;99.90
1880;DHT22;49285;49.002;8.390;2023-04-24T05:22:17;12.20;99.90
1880;DHT22;49285;49.002;8.390;2023-04-24T05:24:46;12.30;99.90
1880;DHT22;49285;49.002;8.390;2023-04-24T05:27:12;12.40;99.90
1880;DHT22;49285;49.002;8.390;2023-04-24T05:29:37;12.50;99.90
1880;DHT22;49285;49.002;8.390;2023-04-24T05:32:03;12.50;99.90
1880;DHT22;49285;49.002;8.390;2023-04-24T05:34:29;12.50;99.90
1880;DHT22;49285;49.002;8.390;2023-04-24T05:36:55;12.40;99.90
1880;DHT22;49285;49.002;8.390;2023-04-24T05:39:21;12.40;99.90
1880;DHT22;49285;49.002;8.390;2023-04-24T05:41:46;12.50;99.90
1880;DHT22;49285;49.002;8.390;2023-04-24T05:44:12;12.60;99.90
1880;DHT22;49285;49.002;8.390;2023-04-24T05:46:37;12.70;99.90
1880;DHT22;49285;49.002;8.390;2023-04-24T05:49:03;12.60;99.90
1880;DHT22;49285;49.002;8.390;2023-04-24T05:51:28;12.50;99.90
1880;DHT22;49285;49.002;8.390;2023-04-24T05:53:54;12.50;99.90
1880;DHT22;49285;49.002;8.390;2023-04-24T05:56:20;12.50;99.90
1880;DHT22;49285;49.002;8.390;2023-04-24T05:58:46;12.50;99.90
1880;DHT22;49285;49.002;8.390;2023-04-24T06:01:12;12.60;99.90
1880;DHT22;49285;49.002;8.390;2023-04-24T06:03:40;12.60;99.90
1880;DHT22;49285;49.002;8.390;2023-04-24T06:06:07;12.60;99.90
1880;DHT22;49285;49.002;8.390;2023-04-24T06:08:32;12.60;99.90
1880;DHT22;49285;49.002;8.390;2023-04-24T06:10:58;12.60;99.90
1880;DHT22;49285;49.002;8.390;2023-04-24T06:13:24;12.60;99.90
1880;DHT22;49285;49.002;8.390;2023-04-24T06:15:49;12.60;99.90
1880;DHT22;49285;49.002;8.390;2023-04-24T06:18:15;12.60;99.90
1880;DHT22;49285;49.002;8.390;2023-04-24T06:20:41;12.70;99.90
1880;DHT22;49285;49.002;8.390;2023-04-24T06:23:06;12.70;99.90
1880;DHT22;49285;49.002;8.390;2023-04-24T06:25:32;12.60;99.90
1880;DHT22;49285;49.002;8.390;2023-04-24T06:27:58;12.60;99.90
1880;DHT22;49285;49.002;8.390;2023-04-24T06:30:23;12.70;99.90
1880;DHT22;49285;49.002;8.390;2023-04-24T06:32:49;12.70;99.90
1880;DHT22;49285;49.002;8.390;2023-04-24T06:35:14;12.60;99.90
1880;DHT22;49285;49.002;8.390;2023-04-24T06:37:41;12.50;99.90
1880;DHT22;49285;49.002;8.390;2023-04-24T06:40:08;12.60;99.90
1880;DHT22;49285;49.002;8.390;2023-04-24T06:42:34;12.60;99.90
1880;DHT22;49285;49.002;8.390;2023-04-24T06:45:00;12.70;99.90
1880;DHT22;49285;49.002;8.390;2023-04-24T06:47:26;12.70;99.90
1880;DHT22;49285;49.002;8.390;2023-04-24T06:49:52;12.70;99.90
1880;DHT22;49285;49.002;8.390;2023-04-24T06:52:18;12.70;99.90
1880;DHT22;49285;49.002;8.390;2023-04-24T06:54:44;12.70;99.90
1880;DHT22;49285;49.002;8.390;2023-04-24T06:57:10;12.90;99.90
1880;DHT22;49285;49.002;8.390;2023-04-24T06:59:36;12.90;99.90
1880;DHT22;49285;49.002;8.390;2023-04-24T07:02:01;12.90;99.90
1880;DHT22;49285;49.002;8.390;2023-04-24T07:04:28;13.00;99.90
1880;DHT22;49285;49.002;8.390;2023-04-24T07:06:53;13.00;99.90
1880;DHT22;49285;49.002;8.390;2023-04-24T07:09:24;12.80;99.90
1880;DHT22;49285;49.002;8.390;2023-04-24T07:11:53;12.70;99.90
1880;DHT22;49285;49.002;8.390;2023-04-24T07:14:19;12.70;99.90
1880;DHT22;49285;49.002;8.390;2023-04-24T07:16:45;12.80;99.90
1880;DHT22;49285;49.002;8.390;2023-04-24T07:19:12;12.90;99.90
1880;DHT22;49285;49.002;8.390;2023-04-24T07:21:37;12.80;99.90
1880;DHT22;49285;49.002;8.390;2023-04-24T07:24:03;12.80;99.90
1880;DHT22;49285;49.002;8.390;2023-04-24T07:26:29;12.80;99.90
1880;DHT22;49285;49.002;8.390;2023-04-24T07:28:55;12.80;99.90
1880;DHT22;49285;49.002;8.390;2023-04-24T07:31:21;12.90;99.90
1880;DHT22;49285;49.002;8.390;2023-04-24T07:33:47;12.90;99.90
1880;DHT22;49285;49.002;8.390;2023-04-24T07:36:13;12.80;99.90
1880;DHT22;49285;49.002;8.390;2023-04-24T07:38:46;12.90;99.90
1880;DHT22;49285;49.002;8.390;2023-04-24T07:41:15;12.90;99.90
1880;DHT22;49285;49.002;8.390;2023-04-24T07:43:41;13.00;99.90
1880;DHT22;49285;49.002;8.390;2023-04-24T07:46:10;13.00;99.90
1880;DHT22;49285;49.002;8.390;2023-04-24T07:48:36;13.00;99.90
1880;DHT22;49285;49.002;8.390;2023-04-24T07:51:02;13.10;99.90
1880;DHT22;49285;49.002;8.390;2023-04-24T07:53:28;12.90;99.90
1880;DHT22;49285;49.002;8.390;2023-04-24T07:55:55;12.80;99.90
1880;DHT22;49285;49.002;8.390;2023-04-24T07:58:21;12.60;99.90
1880;DHT22;49285;49.002;8.390;2023-04-24T08:00:46;12.40;99.90
1880;DHT22;49285;49.002;8.390;2023-04-24T08:03:12;12.40;99.90
1880;DHT22;49285;49.002;8.390;2023-04-24T08:05:38;12.40;99.90
1880;DHT22;49285;49.002;8.390;2023-04-24T08:08:04;12.40;99.90
1880;DHT22;49285;49.002;8.390;2023-04-24T08:10:30;12.30;99.90
1880;DHT22;49285;49.002;8.390;2023-04-24T08:12:55;12.20;99.90
1880;DHT22;49285;49.002;8.390;2023-04-24T08:15:21;12.30;99.90
1880;DHT22;49285;49.002;8.390;2023-04-24T08:17:47;12.40;99.90
1880;DHT22;49285;49.002;8.390;2023-04-24T08:20:12;12.60;99.90
1880;DHT22;49285;49.002;8.390;2023-04-24T08:22:42;12.80;99.90
1880;DHT22;49285;49.002;8.390;2023-04-24T08:25:09;13.00;99.90
1880;DHT22;49285;49.002;8.390;2023-04-24T08:27:34;13.10;99.90
1880;DHT22;49285;49.002;8.390;2023-04-24T08:30:03;13.00;99.90
1880;DHT22;49285;49.002;8.390;2023-04-24T08:32:28;12.90;99.90
1880;DHT22;49285;49.002;8.390;2023-04-24T08:34:58;12.80;99.90
1880;DHT22;49285;49.002;8.390;2023-04-24T08:37:24;12.30;99.90
1880;DHT22;49285;49.002;8.390;2023-04-24T08:39:50;12.10;99.90
1880;DHT22;49285;49.002;8.390;2023-04-24T08:42:18;11.90;99.90
1880;DHT22;49285;49.002;8.390;2023-04-24T08:44:44;12.10;99.90
1880;DHT22;49285;49.002;8.390;2023-04-24T08:47:10;12.00;99.90
1880;DHT22;49285;49.002;8.390;2023-04-24T08:49:37;12.00;99.90
1880;DHT22;49285;49.002;8.390;2023-04-24T08:52:03;12.00;99.90
1880;DHT22;49285;49.002;8.390;2023-04-24T08:54:29;12.00;99.90
1880;DHT22;49285;49.002;8.390;2023-04-24T08:56:58;12.10;99.90
1880;DHT22;49285;49.002;8.390;2023-04-24T08:59:28;12.20;99.90
1880;DHT22;49285;49.002;8.390;2023-04-24T09:01:55;12.40;99.90
1880;DHT22;49285;49.002;8.390;2023-04-24T09:04:22;12.70;99.90
1880;DHT22;49285;49.002;8.390;2023-04-24T09:06:50;12.80;99.90
1880;DHT22;49285;49.002;8.390;2023-04-24T09:09:16;12.90;99.90
1880;DHT22;49285;49.002;8.390;2023-04-24T09:11:43;12.90;99.90
1880;DHT22;49285;49.002;8.390;2023-04-24T09:14:09;13.10;99.90
1880;DHT22;49285;49.002;8.390;2023-04-24T09:16:36;13.10;99.90
1880;DHT22;49285;49.002;8.390;2023-04-24T09:19:01;13.10;99.90
1880;DHT22;49285;49.002;8.390;2023-04-24T09:21:32;13.20;99.90
1880;DHT22;49285;49.002;8.390;2023-04-24T09:24:01;13.20;99.90
1880;DHT22;49285;49.002;8.390;2023-04-24T09:26:29;13.20;99.90
1880;DHT22;49285;49.002;8.390;2023-04-24T09:28:57;13.20;99.90
1880;DHT22;49285;49.002;8.390;2023-04-24T09:31:22;13.10;99.90
1880;DHT22;49285;49.002;8.390;2023-04-24T09:36:29;13.10;99.90
1880;DHT22;49285;49.002;8.390;2023-04-24T09:38:59;13.20;99.90
1880;DHT22;49285;49.002;8.390;2023-04-24T09:41:25;13.40;99.90
1880;DHT22;49285;49.002;8.390;2023-04-24T09:43:53;13.10;99.90
1880;DHT22;49285;49.002;8.390;2023-04-24T09:46:19;13.20;99.90
1880;DHT22;49285;49.002;8.390;2023-04-24T09:48:47;13.10;99.90
1880;DHT22;49285;49.002;8.390;2023-04-24T09:51:12;13.10;99.90
1880;DHT22;49285;49.002;8.390;2023-04-24T09:53:38;13.00;99.90
1880;DHT22;49285;49.002;8.390;2023-04-24T09:56:08;13.10;99.90
1880;DHT22;49285;49.002;8.390;2023-04-24T09:58:35;13.20;99.90
1880;DHT22;49285;49.002;8.390;2023-04-24T10:01:01;13.40;99.90
1880;DHT22;49285;49.002;8.390;2023-04-24T10:03:30;13.60;99.90
1880;DHT22;49285;49.002;8.390;2023-04-24T10:05:59;13.70;99.90
1880;DHT22;49285;49.002;8.390;2023-04-24T10:08:25;13.70;99.90
1880;DHT22;49285;49.002;8.390;2023-04-24T10:10:52;13.70;99.90
1880;DHT22;49285;49.002;8.390;2023-04-24T10:13:17;13.70;99.90
1880;DHT22;49285;49.002;8.390;2023-04-24T10:15:44;13.90;99.90
1880;DHT22;49285;49.002;8.390;2023-04-24T10:18:10;13.80;99.90
1880;DHT22;49285;49.002;8.390;2023-04-24T10:20:37;13.80;99.90
1880;DHT22;49285;49.002;8.390;2023-04-24T10:23:03;13.80;99.90
1880;DHT22;49285;49.002;8.390;2023-04-24T10:25:33;13.80;99.90
1880;DHT22;49285;49.002;8.390;2023-04-24T10:28:01;13.70;99.90
1880;DHT22;49285;49.002;8.390;2023-04-24T10:30:32;13.70;99.90
1880;DHT22;49285;49.002;8.390;2023-04-24T10:33:02;13.60;99.90
1880;DHT22;49285;49.002;8.390;2023-04-24T10:35:31;13.50;99.90
1880;DHT22;49285;49.002;8.390;2023-04-24T10:37:59;13.60;99.90
1880;DHT22;49285;49.002;8.390;2023-04-24T10:40:31;13.60;99.90
1880;DHT22;49285;49.002;8.390;2023-04-24T10:42:57;13.40;99.90
1880;DHT22;49285;49.002;8.390;2023-04-24T10:45:24;13.30;99.90
1880;DHT22;49285;49.002;8.390;2023-04-24T10:50:22;13.10;99.90
1880;DHT22;49285;49.002;8.390;2023-04-24T10:52:49;13.30;99.90
1880;DHT22;49285;49.002;8.390;2023-04-24T10:55:49;13.40;99.90
1880;DHT22;49285;49.002;8.390;2023-04-24T10:58:16;13.40;99.90
1880;DHT22;49285;49.002;8.390;2023-04-24T11:00:43;13.50;99.90
1880;DHT22;49285;49.002;8.390;2023-04-24T11:03:25;13.40;99.90
1880;DHT22;49285;49.002;8.390;2023-04-24T11:06:07;13.40;99.90
1880;DHT22;49285;49.002;8.390;2023-04-24T11:08:44;13.60;99.90
1880;DHT22;49285;49.002;8.390;2023-04-24T11:11:14;13.30;99.90
1880;DHT22;49285;49.002;8.390;2023-04-24T11:27:15;13.10;99.90
1880;DHT22;49285;49.002;8.390;2023-04-24T11:29:46;12.90;99.90
1880;DHT22;49285;49.002;8.390;2023-04-24T11:35:27;13.20;99.90
1880;DHT22;49285;49.002;8.390;2023-04-24T11:37:54;13.20;99.90
1880;DHT22;49285;49.002;8.390;2023-04-24T11:40:21;13.20;99.90
1880;DHT22;49285;49.002;8.390;2023-04-24T11:42:52;13.30;99.90
1880;DHT22;49285;49.002;8.390;2023-04-24T11:45:21;13.20;99.90
1880;DHT22;49285;49.002;8.390;2023-04-24T11:47:47;13.20;99.90
1880;DHT22;49285;49.002;8.390;2023-04-24T11:50:18;13.20;99.90
1880;DHT22;49285;49.002;8.390;2023-04-24T11:52:49;13.10;99.90
1880;DHT22;49285;49.002;8.390;2023-04-24T11:57:47;13.10;99.90
1880;DHT22;49285;49.002;8.390;2023-04-24T12:00:29;13.40;99.90
1880;DHT22;49285;49.002;8.390;2023-04-24T12:05:31;13.80;99.90
1880;DHT22;49285;49.002;8.390;2023-04-24T12:07:57;15.30;99.90
1880;DHT22;49285;49.002;8.390;2023-04-24T12:10:27;16.50;99.90
1880;DHT22;49285;49.002;8.390;2023-04-24T12:12:54;18.00;99.90
1880;DHT22;49285;49.002;8.390;2023-04-24T12:15:21;17.90;99.90
1880;DHT22;49285;49.002;8.390;2023-04-24T12:17:47;18.20;99.90
1880;DHT22;49285;49.002;8.390;2023-04-24T12:20:14;17.80;99.90
1880;DHT22;49285;49.002;8.390;2023-04-24T12:25:10;16.30;99.90
1880;DHT22;49285;49.002;8.390;2023-04-24T12:27:36;16.10;99.90
1880;DHT22;49285;49.002;8.390;2023-04-24T12:30:04;16.20;99.90
1880;DHT22;49285;49.002;8.390;2023-04-24T12:32:31;16.00;99.90
1880;DHT22;49285;49.002;8.390;2023-04-24T12:34:57;16.50;99.90
1880;DHT22;49285;49.002;8.390;2023-04-24T12:37:25;16.90;99.90
1880;DHT22;49285;49.002;8.390;2023-04-24T12:42:31;17.60;99.90
1880;DHT22;49285;49.002;8.390;2023-04-24T12:45:04;17.90;99.90
1880;DHT22;49285;49.002;8.390;2023-04-24T12:47:31;17.30;99.90
1880;DHT22;49285;49.002;8.390;2023-04-24T12:49:57;16.80;99.90
1880;DHT22;49285;49.002;8.390;2023-04-24T12:52:24;16.20;99.90
1880;DHT22;49285;49.002;8.390;2023-04-24T12:54:52;16.20;99.90
1880;DHT22;49285;49.002;8.390;2023-04-24T12:57:18;16.40;99.90
1880;DHT22;49285;49.002;8.390;2023-04-24T12:59:44;17.70;99.90
1880;DHT22;49285;49.002;8.390;2023-04-24T13:02:11;17.80;99.90
1880;DHT22;49285;49.002;8.390;2023-04-24T13:04:36;17.50;99.90
1880;DHT22;49285;49.002;8.390;2023-04-24T13:07:02;16.70;99.90
1880;DHT22;49285;49.002;8.390;2023-04-24T13:09:28;16.30;99.90
1880;DHT22;49285;49.002;8.390;2023-04-24T13:11:54;16.10;99.90
1880;DHT22;49285;49.002;8.390;2023-04-24T13:14:20;15.80;99.90
1880;DHT22;49285;49.002;8.390;2023-04-24T13:16:46;15.50;99.90
1880;DHT22;49285;49.002;8.390;2023-04-24T13:19:11;15.40;99.90
1880;DHT22;49285;49.002;8.390;2023-04-24T13:21:37;15.90;99.90
1880;DHT22;49285;49.002;8.390;2023-04-24T13:24:02;17.20;99.90
1880;DHT22;49285;49.002;8.390;2023-04-24T13:26:30;19.60;99.90
1880;DHT22;49285;49.002;8.390;2023-04-24T13:28:55;21.90;98.60
1880;DHT22;49285;49.002;8.390;2023-04-24T13:31:21;20.40;95.60
1880;DHT22;49285;49.002;8.390;2023-04-24T13:33:47;19.50;96.80
1880;DHT22;49285;49.002;8.390;2023-04-24T13:36:13;19.20;97.10
1880;DHT22;49285;49.002;8.390;2023-04-24T13:38:38;19.00;97.10
1880;DHT22;49285;49.002;8.390;2023-04-24T13:41:04;20.40;95.30
1880;DHT22;49285;49.002;8.390;2023-04-24T13:43:29;19.60;93.80
1880;DHT22;49285;49.002;8.390;2023-04-24T13:45:55;19.80;95.20
1880;DHT22;49285;49.002;8.390;2023-04-24T13:48:21;20.70;94.10
1880;DHT22;49285;49.002;8.390;2023-04-24T13:50:46;19.70;94.00
1880;DHT22;49285;49.002;8.390;2023-04-24T13:53:14;18.70;95.00
1880;DHT22;49285;49.002;8.390;2023-04-24T13:55:40;18.20;96.20
1880;DHT22;49285;49.002;8.390;2023-04-24T13:58:06;17.50;97.60
1880;DHT22;49285;49.002;8.390;2023-04-24T14:00:32;17.20;98.30
1880;DHT22;49285;49.002;8.390;2023-04-24T14:02:57;16.70;98.50
1880;DHT22;49285;49.002;8.390;2023-04-24T14:05:23;16.50;98.90
1880;DHT22;49285;49.002;8.390;2023-04-24T14:07:48;16.30;99.60
1880;DHT22;49285;49.002;8.390;2023-04-24T14:10:14;16.00;99.90
1880;DHT22;49285;49.002;8.390;2023-04-24T14:12:40;15.80;99.90
1880;DHT22;49285;49.002;8.390;2023-04-24T14:15:06;15.50;99.90
1880;DHT22;49285;49.002;8.390;2023-04-24T14:17:31;15.30;99.90
1880;DHT22;49285;49.002;8.390;2023-04-24T14:19:57;15.00;99.90
1880;DHT22;49285;49.002;8.390;2023-04-24T14:22:25;14.30;99.90
1880;DHT22;49285;49.002;8.390;2023-04-24T14:24:50;14.10;99.90
1880;DHT22;49285;49.002;8.390;2023-04-24T14:27:16;14.90;99.90
1880;DHT22;49285;49.002;8.390;2023-04-24T14:29:42;17.50;99.90
1880;DHT22;49285;49.002;8.390;2023-04-24T14:32:07;19.80;99.90
1880;DHT22;49285;49.002;8.390;2023-04-24T14:34:34;20.50;99.90
1880;DHT22;49285;49.002;8.390;2023-04-24T14:37:00;21.60;99.90
1880;DHT22;49285;49.002;8.390;2023-04-24T14:39:25;22.00;99.90
1880;DHT22;49285;49.002;8.390;2023-04-24T14:41:51;22.70;98.50
1880;DHT22;49285;49.002;8.390;2023-04-24T14:44:17;24.80;95.80
1880;DHT22;49285;49.002;8.390;2023-04-24T14:46:42;25.60;90.80
1880;DHT22;49285;49.002;8.390;2023-04-24T14:49:08;26.20;80.10
1880;DHT22;49285;49.002;8.390;2023-04-24T14:51:35;26.40;75.80
1880;DHT22;49285;49.002;8.390;2023-04-24T14:54:01;25.00;76.00
1880;DHT22;49285;49.002;8.390;2023-04-24T14:56:26;24.50;75.80
1880;DHT22;49285;49.002;8.390;2023-04-24T14:58:52;23.30;76.00
1880;DHT22;49285;49.002;8.390;2023-04-24T15:01:18;22.00;77.90
1880;DHT22;49285;49.002;8.390;2023-04-24T15:03:44;21.00;81.40
1880;DHT22;49285;49.002;8.390;2023-04-24T15:06:09;19.80;82.70
1880;DHT22;49285;49.002;8.390;2023-04-24T15:08:35;18.80;86.90
1880;DHT22;49285;49.002;8.390;2023-04-24T15:11:01;18.20;88.10
1880;DHT22;49285;49.002;8.390;2023-04-24T15:13:26;17.60;90.30
1880;DHT22;49285;49.002;8.390;2023-04-24T15:15:52;17.30;91.30
1880;DHT22;49285;49.002;8.390;2023-04-24T15:18:17;17.00;91.80
1880;DHT22;49285;49.002;8.390;2023-04-24T15:20:43;16.80;92.60
1880;DHT22;49285;49.002;8.390;2023-04-24T15:23:09;16.70;93.30
1880;DHT22;49285;49.002;8.390;2023-04-24T15:25:35;16.50;94.60
1880;DHT22;49285;49.002;8.390;2023-04-24T15:28:00;16.30;94.90
1880;DHT22;49285;49.002;8.390;2023-04-24T15:30:26;16.20;95.20
1880;DHT22;49285;49.002;8.390;2023-04-24T15:32:52;16.20;95.80
1880;DHT22;49285;49.002;8.390;2023-04-24T15:35:18;15.80;96.60
1880;DHT22;49285;49.002;8.390;2023-04-24T15:37:43;15.70;98.00
1880;DHT22;49285;49.002;8.390;2023-04-24T15:40:10;15.60;99.30
1880;DHT22;49285;49.002;8.390;2023-04-24T15:42:38;15.50;99.90
1880;DHT22;49285;49.002;8.390;2023-04-24T15:45:04;15.30;99.90
1880;DHT22;49285;49.002;8.390;2023-04-24T15:47:31;15.20;99.90
1880;DHT22;49285;49.002;8.390;2023-04-24T15:49:57;15.20;99.90
1880;DHT22;49285;49.002;8.390;2023-04-24T15:52:23;15.10;99.90
1880;DHT22;49285;49.002;8.390;2023-04-24T15:54:48;14.90;99.90
1880;DHT22;49285;49.002;8.390;2023-04-24T15:57:14;14.70;99.90
1880;DHT22;49285;49.002;8.390;2023-04-24T15:59:40;14.70;99.90
1880;DHT22;49285;49.002;8.390;2023-04-24T16:02:11;14.80;99.90
1880;DHT22;49285;49.002;8.390;2023-04-24T16:04:38;14.90;99.90
1880;DHT22;49285;49.002;8.390;2023-04-24T16:07:04;14.90;99.90
1880;DHT22;49285;49.002;8.390;2023-04-24T16:09:30;15.00;99.90
1880;DHT22;49285;49.002;8.390;2023-04-24T16:11:55;14.90;99.90